createdAt,value
2022-11-24T00:01:20.717Z,88.42
2022-11-24T00:03:55.896Z,88.55
2022-11-24T00:06:24.993Z,88.66
2022-11-24T00:08:53.581Z,88.70
2022-11-24T00:11:24.121Z,88.44
2022-11-24T00:13:52.670Z,88.62
2022-11-24T00:16:23.335Z,88.52
2022-11-24T00:18:53.608Z,88.51
2022-11-24T00:21:23.414Z,88.52
2022-11-24T00:23:51.977Z,88.44
2022-11-24T00:26:21.717Z,88.67
2022-11-24T00:28:51.267Z,88.55
2022-11-24T00:31:21.113Z,88.48
2022-11-24T00:33:50.842Z,88.42
2022-11-24T00:36:20.546Z,88.43
2022-11-24T00:38:54.792Z,88.47
2022-11-24T00:41:23.331Z,88.43
2022-11-24T00:43:51.651Z,88.42
2022-11-24T00:46:20.090Z,88.20
2022-11-24T00:48:48.905Z,88.24
2022-11-24T00:51:18.663Z,88.22
2022-11-24T00:53:47.100Z,88.29
2022-11-24T00:56:16.843Z,88.30
2022-11-24T00:58:45.210Z,88.30
2022-11-24T01:01:14.751Z,88.30
2022-11-24T01:03:43.710Z,88.29
2022-11-24T01:06:13.825Z,88.35
2022-11-24T01:08:42.567Z,88.34
2022-11-24T01:11:12.843Z,88.36
2022-11-24T01:13:43.879Z,88.40
2022-11-24T01:16:16.582Z,88.41
2022-11-24T01:18:44.911Z,88.43
2022-11-24T01:21:13.218Z,88.28
2022-11-24T01:23:41.578Z,88.39
2022-11-24T01:26:12.351Z,88.34
2022-11-24T01:28:47.100Z,88.65
2022-11-24T01:31:16.909Z,88.34
2022-11-24T01:33:45.354Z,88.39
2022-11-24T01:36:13.729Z,88.65
2022-11-24T01:38:42.180Z,88.59
2022-11-24T01:41:13.121Z,88.54
2022-11-24T01:43:43.005Z,88.74
2022-11-24T01:46:18.912Z,88.64
2022-11-24T01:48:48.940Z,88.65
2022-11-24T01:51:20.331Z,88.18
2022-11-24T01:53:53.194Z,88.81
2022-11-24T01:56:21.693Z,88.75
2022-11-24T01:58:52.268Z,88.67
2022-11-24T02:01:20.733Z,88.76
2022-11-24T02:03:50.559Z,88.68
2022-11-24T02:06:21.496Z,88.81
2022-11-24T02:08:53.189Z,88.78
2022-11-24T02:11:22.688Z,88.72
2022-11-24T02:13:52.884Z,88.75
2022-11-24T02:16:21.244Z,88.97
2022-11-24T02:18:49.840Z,88.95
2022-11-24T02:21:18.501Z,89.21
2022-11-24T02:23:54.818Z,89.07
2022-11-24T02:26:33.721Z,89.13
2022-11-24T02:29:02.368Z,89.13
2022-11-24T02:31:30.715Z,89.21
2022-11-24T02:33:59.347Z,89.10
2022-11-24T02:36:27.710Z,89.21
2022-11-24T02:38:56.035Z,88.85
2022-11-24T02:41:26.769Z,89.17
2022-11-24T02:43:59.533Z,89.45
2022-11-24T02:46:27.899Z,89.15
2022-11-24T02:48:56.384Z,89.28
2022-11-24T02:51:24.715Z,89.17
2022-11-24T02:53:52.971Z,89.17
2022-11-24T02:56:21.272Z,89.36
2022-11-24T02:58:49.598Z,89.46
2022-11-24T03:01:19.575Z,89.28
2022-11-24T03:03:47.896Z,89.29
2022-11-24T03:06:16.246Z,89.72
2022-11-24T03:08:44.665Z,89.51
2022-11-24T03:11:12.950Z,89.31
2022-11-24T03:13:41.265Z,89.20
2022-11-24T03:16:11.540Z,89.41
2022-11-24T03:18:41.353Z,89.50
2022-11-24T03:21:09.649Z,89.33
2022-11-24T03:23:38.058Z,89.31
2022-11-24T03:26:10.479Z,89.34
2022-11-24T03:28:39.120Z,89.33
2022-11-24T03:31:07.978Z,89.21
2022-11-24T03:33:36.636Z,89.51
2022-11-24T03:36:07.780Z,89.32
2022-11-24T03:38:36.191Z,89.36
2022-11-24T03:41:04.704Z,89.29
2022-11-24T03:43:33.043Z,89.46
2022-11-24T03:46:01.444Z,89.28
2022-11-24T03:48:29.798Z,89.51
2022-11-24T03:50:59.757Z,89.21
2022-11-24T03:53:30.914Z,89.30
2022-11-24T03:55:59.544Z,89.36
2022-11-24T03:58:27.916Z,89.13
2022-11-24T04:00:56.294Z,89.29
2022-11-24T04:03:24.994Z,89.81
2022-11-24T04:05:53.320Z,89.31
2022-11-24T04:08:21.706Z,89.54
2022-11-24T04:10:53.463Z,89.49
2022-11-24T04:13:23.767Z,89.55
2022-11-24T04:15:52.485Z,89.48
2022-11-24T04:18:20.874Z,89.55
2022-11-24T04:20:50.800Z,89.41
2022-11-24T04:23:19.287Z,89.54
2022-11-24T04:25:47.713Z,89.38
2022-11-24T04:28:17.290Z,89.42
2022-11-24T04:30:45.528Z,89.59
2022-11-24T04:33:14.312Z,89.65
2022-11-24T04:35:42.602Z,89.43
2022-11-24T04:38:10.830Z,89.58
2022-11-24T04:40:39.277Z,89.60
2022-11-24T04:43:07.559Z,89.46
2022-11-24T04:45:37.191Z,89.46
2022-11-24T04:48:05.805Z,89.66
2022-11-24T04:50:34.007Z,89.44
2022-11-24T04:53:02.207Z,89.32
2022-11-24T04:55:30.529Z,89.41
2022-11-24T04:57:58.733Z,89.33
2022-11-24T05:00:26.935Z,89.48
2022-11-24T05:02:56.578Z,89.28
2022-11-24T05:05:24.767Z,89.16
2022-11-24T05:07:52.937Z,89.23
2022-11-24T05:10:36.064Z,89.47
2022-11-24T05:13:05.599Z,89.55
2022-11-24T05:15:33.819Z,89.38
2022-11-24T05:18:05.268Z,89.33
2022-11-24T05:20:33.481Z,89.47
2022-11-24T05:23:03.997Z,89.55
2022-11-24T05:25:32.538Z,89.50
2022-11-24T05:28:02.104Z,89.45
2022-11-24T05:30:30.813Z,89.58
2022-11-24T05:32:59.257Z,89.62
2022-11-24T05:35:29.150Z,89.44
2022-11-24T05:37:58.845Z,89.55
2022-11-24T05:40:26.974Z,89.69
2022-11-24T05:42:55.148Z,89.44
2022-11-24T05:45:23.445Z,89.60
2022-11-24T05:47:51.915Z,89.54
2022-11-24T05:50:21.988Z,89.63
2022-11-24T05:52:51.781Z,89.70
2022-11-24T05:55:21.834Z,89.42
2022-11-24T05:57:49.963Z,89.50
2022-11-24T06:00:20.213Z,89.27
2022-11-24T06:02:49.224Z,89.54
2022-11-24T06:05:17.719Z,89.60
2022-11-24T06:07:45.939Z,89.46
2022-11-24T06:10:17.043Z,89.32
2022-11-24T06:12:45.235Z,89.57
2022-11-24T06:15:14.005Z,89.70
2022-11-24T06:17:42.247Z,89.69
2022-11-24T06:20:11.756Z,89.58
2022-11-24T06:22:39.984Z,89.61
2022-11-24T06:25:09.433Z,89.61
2022-11-24T06:27:38.949Z,89.53
2022-11-24T06:30:07.819Z,89.60
2022-11-24T06:32:36.004Z,89.64
2022-11-24T06:35:04.844Z,89.74
2022-11-24T06:37:33.017Z,89.73
2022-11-24T06:40:01.231Z,89.58
2022-11-24T06:42:29.348Z,89.71
2022-11-24T06:44:58.870Z,89.59
2022-11-24T06:47:27.020Z,89.61
2022-11-24T06:49:55.160Z,89.75
2022-11-24T06:52:23.326Z,89.76
2022-11-24T06:54:51.453Z,89.59
2022-11-24T06:57:19.592Z,89.57
2022-11-24T06:59:47.781Z,89.79
2022-11-24T07:02:17.297Z,89.82
2022-11-24T07:04:45.484Z,89.81
2022-11-24T07:07:13.706Z,89.68
2022-11-24T07:09:41.840Z,89.82
2022-11-24T07:12:10.028Z,89.64
2022-11-24T07:14:38.230Z,89.60
2022-11-24T07:17:06.750Z,89.51
2022-11-24T07:19:36.350Z,89.71
2022-11-24T07:22:04.926Z,89.53
2022-11-24T07:24:33.409Z,89.60
2022-11-24T07:27:01.745Z,89.65
2022-11-24T07:29:29.902Z,89.69
2022-11-24T07:32:03.731Z,89.81
2022-11-24T07:34:33.745Z,89.65
2022-11-24T07:37:03.493Z,89.65
2022-11-24T07:39:31.622Z,89.72
2022-11-24T07:42:00.302Z,89.58
2022-11-24T07:44:28.579Z,89.37
2022-11-24T07:46:56.733Z,89.67
2022-11-24T07:49:24.884Z,89.65
2022-11-24T07:51:53.019Z,89.58
2022-11-24T07:54:22.570Z,89.56
2022-11-24T07:56:50.705Z,89.62
2022-11-24T07:59:18.938Z,89.60
2022-11-24T08:01:47.099Z,89.70
2022-11-24T08:04:15.224Z,89.75
2022-11-24T08:06:47.161Z,89.61
2022-11-24T08:09:15.707Z,89.76
2022-11-24T08:11:45.327Z,89.56
2022-11-24T08:14:13.477Z,89.60
2022-11-24T08:16:41.783Z,89.52
2022-11-24T08:19:11.878Z,89.63
2022-11-24T08:21:40.097Z,89.53
2022-11-24T08:24:09.618Z,89.53
2022-11-24T08:26:38.009Z,89.63
2022-11-24T08:29:07.547Z,89.53
2022-11-24T08:31:39.002Z,89.59
2022-11-24T08:34:07.393Z,89.61
2022-11-24T08:36:35.750Z,89.42
2022-11-24T08:39:04.629Z,89.31
2022-11-24T08:41:33.825Z,89.41
2022-11-24T08:44:01.978Z,89.32
2022-11-24T08:46:31.569Z,89.44
2022-11-24T08:48:59.783Z,89.41
2022-11-24T08:51:28.552Z,89.42
2022-11-24T08:53:58.362Z,89.49
2022-11-24T08:56:27.428Z,89.42
2022-11-24T08:58:56.098Z,89.43
2022-11-24T09:01:24.908Z,89.35
2022-11-24T09:03:54.704Z,89.33
2022-11-24T09:06:25.252Z,89.22
2022-11-24T09:08:54.480Z,89.54
2022-11-24T09:11:23.270Z,89.42
2022-11-24T09:13:51.907Z,89.16
2022-11-24T09:16:22.206Z,89.26
2022-11-24T09:18:59.419Z,89.32
2022-11-24T09:21:27.899Z,89.34
2022-11-24T09:23:56.184Z,89.08
2022-11-24T09:26:25.516Z,89.19
2022-11-24T09:28:55.421Z,89.10
2022-11-24T09:31:25.212Z,89.11
2022-11-24T09:33:53.940Z,89.03
2022-11-24T09:36:24.231Z,89.19
2022-11-24T09:38:52.466Z,89.20
2022-11-24T09:41:47.134Z,89.11
2022-11-24T09:44:47.710Z,89.26
2022-11-24T09:47:23.857Z,89.06
2022-11-24T09:49:57.305Z,89.15
2022-11-24T09:52:39.495Z,88.97
2022-11-24T09:55:21.286Z,89.08
2022-11-24T09:57:54.282Z,88.85
2022-11-24T10:00:22.632Z,89.04
2022-11-24T10:02:51.017Z,89.13
2022-11-24T10:05:20.180Z,88.99
2022-11-24T10:08:01.332Z,89.04
2022-11-24T10:10:36.074Z,89.02
2022-11-24T10:13:13.442Z,88.92
2022-11-24T10:15:45.949Z,89.00
2022-11-24T10:18:50.072Z,89.12
2022-11-24T10:21:32.665Z,88.97
2022-11-24T10:24:18.920Z,88.91
2022-11-24T10:26:51.846Z,88.93
2022-11-24T10:29:22.362Z,88.90
2022-11-24T10:31:53.375Z,88.99
2022-11-24T10:34:26.282Z,88.89
2022-11-24T10:36:59.095Z,88.89
2022-11-24T10:39:33.688Z,88.76
2022-11-24T10:42:06.832Z,88.85
2022-11-24T10:44:35.012Z,88.94
2022-11-24T10:47:03.881Z,88.89
2022-11-24T10:49:33.792Z,88.90
2022-11-24T10:52:07.041Z,88.85
2022-11-24T10:54:37.167Z,88.72
2022-11-24T10:57:05.434Z,88.67
2022-11-24T10:59:37.560Z,88.83
2022-11-24T11:02:34.935Z,88.85
2022-11-24T11:05:42.129Z,88.83
2022-11-24T11:08:22.402Z,88.47
2022-11-24T11:10:53.323Z,88.45
2022-11-24T11:13:25.943Z,88.31
2022-11-24T11:15:54.336Z,88.12
2022-11-24T11:18:23.500Z,88.31
2022-11-24T11:20:53.450Z,88.18
2022-11-24T11:23:28.965Z,88.35
2022-11-24T11:26:21.237Z,88.19
2022-11-24T11:34:48.358Z,88.40
2022-11-24T11:37:17.056Z,88.21
2022-11-24T11:39:48.992Z,88.28
2022-11-24T11:42:59.967Z,88.21
2022-11-24T11:45:16.553Z,88.23
2022-11-24T11:47:46.781Z,88.23
2022-11-24T11:50:16.408Z,88.38
2022-11-24T11:53:16.388Z,88.18
2022-11-24T11:55:51.259Z,88.00
2022-11-24T11:58:39.000Z,88.01
2022-11-24T12:01:16.511Z,88.19
2022-11-24T12:03:56.097Z,87.95
2022-11-24T12:06:35.711Z,88.07
2022-11-24T12:09:26.018Z,88.06
2022-11-24T12:12:06.751Z,88.18
2022-11-24T12:14:44.820Z,88.07
2022-11-24T12:17:21.075Z,87.88
2022-11-24T12:20:08.478Z,87.93
2022-11-24T12:22:43.063Z,87.98
2022-11-24T12:25:23.981Z,87.77
2022-11-24T12:28:02.425Z,87.80
2022-11-24T12:30:39.071Z,87.85
2022-11-24T12:33:33.071Z,87.71
2022-11-24T12:36:08.252Z,87.89
2022-11-24T12:38:46.911Z,87.75
2022-11-24T12:44:18.531Z,87.76
2022-11-24T12:46:57.978Z,87.90
2022-11-24T12:49:31.644Z,87.64
2022-11-24T12:52:04.153Z,87.81
2022-11-24T12:54:39.865Z,87.68
2022-11-24T12:57:11.460Z,87.82
2022-11-24T12:59:45.422Z,87.95
2022-11-24T13:02:22.473Z,87.77
2022-11-24T13:04:55.367Z,87.89
2022-11-24T13:07:28.456Z,87.86
2022-11-24T13:13:19.229Z,87.79
2022-11-24T13:19:15.552Z,87.77
2022-11-24T13:22:03.743Z,87.77
2022-11-24T13:24:33.774Z,87.84
2022-11-24T13:27:46.223Z,87.83
2022-11-24T13:30:53.880Z,87.94
2022-11-24T13:33:31.114Z,87.79
2022-11-24T13:36:58.759Z,87.77
2022-11-24T13:39:51.805Z,87.77
2022-11-24T13:42:43.683Z,87.74
2022-11-24T13:45:30.741Z,87.85
2022-11-24T13:47:58.991Z,87.62
2022-11-24T13:51:01.455Z,87.76
2022-11-24T13:53:33.450Z,87.71
2022-11-24T13:56:10.539Z,87.78
2022-11-24T13:58:40.028Z,87.98
2022-11-24T14:01:19.054Z,88.10
2022-11-24T14:04:28.743Z,87.78
2022-11-24T14:06:47.887Z,87.90
2022-11-24T14:09:36.296Z,87.91
2022-11-24T14:12:12.981Z,88.08
2022-11-24T14:14:41.267Z,87.94
2022-11-24T14:17:17.102Z,87.88
2022-11-24T14:19:46.706Z,88.06
2022-11-24T14:22:18.889Z,88.10
2022-11-24T14:24:52.511Z,88.04
2022-11-24T14:27:27.550Z,87.71
2022-11-24T14:29:57.336Z,88.11
2022-11-24T14:32:25.633Z,87.90
2022-11-24T14:34:54.495Z,87.93
2022-11-24T14:37:22.904Z,87.74
2022-11-24T14:39:51.041Z,88.09
2022-11-24T14:42:23.163Z,88.07
2022-11-24T14:44:54.131Z,88.04
2022-11-24T14:47:46.017Z,88.07
2022-11-24T14:50:18.289Z,87.87
2022-11-24T14:52:51.458Z,88.17
2022-11-24T14:55:28.143Z,87.99
2022-11-24T14:57:57.880Z,87.73
2022-11-24T15:00:31.086Z,87.91
2022-11-24T15:03:16.015Z,88.03
2022-11-24T15:05:55.928Z,87.96
2022-11-24T15:08:25.244Z,88.05
2022-11-24T15:10:58.768Z,88.15
2022-11-24T15:13:29.121Z,88.03
2022-11-24T15:16:02.862Z,88.08
2022-11-24T15:18:38.475Z,87.84
2022-11-24T15:21:06.809Z,87.84
2022-11-24T15:23:35.409Z,88.01
2022-11-24T15:26:31.305Z,88.03
2022-11-24T15:29:02.650Z,88.06
2022-11-24T15:31:31.084Z,88.01
2022-11-24T15:33:59.270Z,88.13
2022-11-24T15:36:27.524Z,87.96
2022-11-24T15:38:55.653Z,88.08
2022-11-24T15:41:27.681Z,87.75
2022-11-24T15:43:59.156Z,87.80
2022-11-24T15:46:29.662Z,88.09
2022-11-24T15:48:58.044Z,87.95
2022-11-24T15:51:27.384Z,87.83
2022-11-24T15:54:00.666Z,87.69
2022-11-24T15:56:31.813Z,88.21
2022-11-24T15:59:00.103Z,87.77
2022-11-24T16:01:32.073Z,87.97
2022-11-24T16:04:00.572Z,87.80
2022-11-24T16:06:28.700Z,87.69
2022-11-24T16:08:58.075Z,87.93
2022-11-24T16:11:26.399Z,87.66
2022-11-24T16:13:54.802Z,87.85
2022-11-24T16:16:24.642Z,87.70
2022-11-24T16:18:54.474Z,87.52
2022-11-24T16:21:23.196Z,87.76
2022-11-24T16:23:51.787Z,87.72
2022-11-24T16:26:19.946Z,87.94
2022-11-24T16:28:48.063Z,88.25
2022-11-24T16:31:16.667Z,88.61
2022-11-24T16:33:46.440Z,88.39
2022-11-24T16:36:16.347Z,88.46
2022-11-24T16:38:44.919Z,88.61
2022-11-24T16:41:13.174Z,88.77
2022-11-24T16:43:41.376Z,88.84
2022-11-24T16:46:20.266Z,88.81
2022-11-24T16:48:49.585Z,88.88
2022-11-24T16:51:20.171Z,88.92
2022-11-24T16:53:48.878Z,89.07
2022-11-24T16:56:17.546Z,89.09
2022-11-24T16:58:45.725Z,88.98
2022-11-24T17:01:14.754Z,88.82
2022-11-24T17:03:43.157Z,88.66
2022-11-24T17:06:12.865Z,88.81
2022-11-24T17:08:42.821Z,88.90
2022-11-24T17:11:12.343Z,88.62
2022-11-24T17:13:41.217Z,88.92
2022-11-24T17:16:11.444Z,88.82
2022-11-24T17:18:40.129Z,88.62
2022-11-24T17:21:10.126Z,88.70
2022-11-24T17:23:38.846Z,88.79
2022-11-24T17:26:11.529Z,88.61
2022-11-24T17:28:40.689Z,88.93
2022-11-24T17:31:09.475Z,88.64
2022-11-24T17:33:37.703Z,88.84
2022-11-24T17:36:07.617Z,88.95
2022-11-24T17:38:36.949Z,88.96
2022-11-24T17:41:05.150Z,88.95
2022-11-24T17:43:34.656Z,88.99
2022-11-24T17:46:03.816Z,88.91
2022-11-24T17:48:32.976Z,88.98
2022-11-24T17:51:02.090Z,88.63
2022-11-24T17:53:30.541Z,89.04
2022-11-24T17:56:00.632Z,88.79
2022-11-24T17:58:29.149Z,88.70
2022-11-24T18:00:59.347Z,88.79
2022-11-24T18:03:31.452Z,88.90
2022-11-24T18:06:05.123Z,88.98
2022-11-24T18:08:34.112Z,88.78
2022-11-24T18:11:06.116Z,88.98
2022-11-24T18:13:55.731Z,89.04
2022-11-24T18:16:27.704Z,88.81
2022-11-24T18:19:07.854Z,88.92
2022-11-24T18:21:37.306Z,88.78
2022-11-24T18:24:05.707Z,88.99
2022-11-24T18:26:33.852Z,89.03
2022-11-24T18:29:01.996Z,88.86
2022-11-24T18:31:34.178Z,88.97
2022-11-24T18:34:02.974Z,88.95
2022-11-24T18:36:31.211Z,88.92
2022-11-24T18:39:01.268Z,89.01
2022-11-24T18:41:29.473Z,89.01
2022-11-24T18:43:57.604Z,88.71
2022-11-24T18:46:25.900Z,88.59
2022-11-24T18:48:56.106Z,88.92
2022-11-24T18:51:27.196Z,88.64
2022-11-24T18:53:57.904Z,88.66
2022-11-24T18:56:26.534Z,88.48
2022-11-24T18:58:55.290Z,88.57
2022-11-24T19:01:25.090Z,88.51
2022-11-24T19:03:56.328Z,88.60
2022-11-24T19:06:28.767Z,88.73
2022-11-24T19:08:57.214Z,88.89
2022-11-24T19:11:26.868Z,88.72
2022-11-24T19:13:55.586Z,88.93
2022-11-24T19:16:24.588Z,89.02
2022-11-24T19:18:54.579Z,89.03
2022-11-24T19:21:24.269Z,89.11
2022-11-24T19:23:52.453Z,88.99
2022-11-24T19:26:20.917Z,88.85
2022-11-24T19:28:49.133Z,89.11
2022-11-24T19:31:19.062Z,89.18
2022-11-24T19:33:47.227Z,89.21
2022-11-24T19:36:16.978Z,89.21
2022-11-24T19:38:50.986Z,89.26
2022-11-24T19:41:20.687Z,89.36
2022-11-24T19:43:49.291Z,89.31
2022-11-24T19:46:18.856Z,89.57
2022-11-24T19:48:50.182Z,89.52
2022-11-24T19:51:20.509Z,89.65
2022-11-24T19:53:50.203Z,89.62
2022-11-24T19:56:19.572Z,89.60
2022-11-24T19:58:48.311Z,89.86
2022-11-24T20:01:17.906Z,89.85
2022-11-24T20:03:47.748Z,90.05
2022-11-24T20:06:16.587Z,89.85
2022-11-24T20:08:44.788Z,89.83
2022-11-24T20:11:15.801Z,89.88
2022-11-24T20:13:45.648Z,89.57
2022-11-24T20:16:14.944Z,89.64
2022-11-24T20:18:44.605Z,89.63
2022-11-24T20:21:15.147Z,89.74
2022-11-24T20:23:43.543Z,89.70
2022-11-24T20:26:14.860Z,89.78
2022-11-24T20:28:43.621Z,89.80
2022-11-24T20:31:14.689Z,89.83
2022-11-24T20:33:43.535Z,89.72
2022-11-24T20:36:13.952Z,89.52
2022-11-24T20:38:42.978Z,89.70
2022-11-24T20:41:12.903Z,89.55
2022-11-24T20:43:44.025Z,89.76
2022-11-24T20:46:14.862Z,90.09
2022-11-24T20:48:43.402Z,89.83
2022-11-24T20:51:13.635Z,89.84
2022-11-24T20:53:42.541Z,90.00
2022-11-24T20:56:12.623Z,89.85
2022-11-24T20:58:42.370Z,89.63
2022-11-24T21:01:12.372Z,89.66
2022-11-24T21:03:43.275Z,89.81
2022-11-24T21:06:12.180Z,89.67
2022-11-24T21:08:41.697Z,89.46
2022-11-24T21:11:11.469Z,89.53
2022-11-24T21:13:41.300Z,89.49
2022-11-24T21:16:15.474Z,89.65
2022-11-24T21:18:44.537Z,89.61
2022-11-24T21:21:13.125Z,89.62
2022-11-24T21:23:41.389Z,89.86
2022-11-24T21:26:15.054Z,89.62
2022-11-24T21:28:45.913Z,89.89
2022-11-24T21:31:17.617Z,89.92
2022-11-24T21:33:47.061Z,90.01
2022-11-24T21:36:17.700Z,90.19
2022-11-24T21:38:50.692Z,90.43
2022-11-24T21:41:19.507Z,90.33
2022-11-24T21:43:48.112Z,90.56
2022-11-24T21:46:18.226Z,90.46
2022-11-24T21:48:46.418Z,90.55
2022-11-24T21:51:15.568Z,90.50
2022-11-24T21:53:44.400Z,90.27
2022-11-24T21:56:14.230Z,90.28
2022-11-24T21:58:47.208Z,90.35
2022-11-24T22:01:17.808Z,90.42
2022-11-24T22:03:46.806Z,90.36
2022-11-24T22:06:15.325Z,90.26
2022-11-24T22:08:43.498Z,90.24
2022-11-24T22:11:13.590Z,90.04
2022-11-24T22:13:42.133Z,90.10
2022-11-24T22:16:12.115Z,90.11
2022-11-24T22:18:43.455Z,90.27
2022-11-24T22:21:14.234Z,90.27
2022-11-24T22:23:42.828Z,89.98
2022-11-24T22:26:14.943Z,90.00
2022-11-24T22:28:43.981Z,90.18
2022-11-24T22:31:13.526Z,90.02
2022-11-24T22:33:43.705Z,90.11
2022-11-24T22:36:12.872Z,90.24
2022-11-24T22:38:41.516Z,90.39
2022-11-24T22:41:11.308Z,90.45
2022-11-24T22:43:40.762Z,90.42
2022-11-24T22:46:11.041Z,90.67
2022-11-24T22:48:39.836Z,90.58
2022-11-24T22:51:11.712Z,90.79
2022-11-24T22:53:40.428Z,90.65
2022-11-24T22:56:10.506Z,90.84
2022-11-24T22:58:39.488Z,90.49
2022-11-24T23:01:08.300Z,90.50
2022-11-24T23:03:36.736Z,90.42
2022-11-24T23:06:06.099Z,90.39
2022-11-24T23:08:37.008Z,90.35
2022-11-24T23:11:06.957Z,90.22
2022-11-24T23:13:35.487Z,90.27
2022-11-24T23:16:04.950Z,90.25
2022-11-24T23:18:33.247Z,90.14
2022-11-24T23:21:06.488Z,89.99
2022-11-24T23:23:36.119Z,90.13
2022-11-24T23:26:05.316Z,90.10
2022-11-24T23:28:33.794Z,90.00
2022-11-24T23:31:02.851Z,90.04
2022-11-24T23:33:31.225Z,90.14
2022-11-24T23:36:02.102Z,90.08
2022-11-24T23:38:32.523Z,90.09
2022-11-24T23:41:04.435Z,90.05
2022-11-24T23:43:32.819Z,90.20
2022-11-24T23:46:04.370Z,90.19
2022-11-24T23:48:32.863Z,90.24
2022-11-24T23:51:05.276Z,90.18
2022-11-24T23:53:33.722Z,90.36
2022-11-24T23:56:03.811Z,90.40
2022-11-24T23:58:33.015Z,90.47
